sensor_id;sensor_type;location;lat;lon;timestamp;temperature;humidity
19007;DHT22;9636;47.382;8.480;2023-09-18T00:01:15;23.10;99.90
19007;DHT22;9636;47.382;8.480;2023-09-18T00:03:45;23.10;99.90
19007;DHT22;9636;47.382;8.480;2023-09-18T00:06:12;23.10;99.90
19007;DHT22;9636;47.382;8.480;2023-09-18T00:08:39;23.10;99.90
19007;DHT22;9636;47.382;8.480;2023-09-18T00:11:06;23.10;99.90
19007;DHT22;9636;47.382;8.480;2023-09-18T00:13:33;23.10;99.90
19007;DHT22;9636;47.382;8.480;2023-09-18T00:16:01;23.10;99.90
19007;DHT22;9636;47.382;8.480;2023-09-18T00:18:29;23.10;99.90
19007;DHT22;9636;47.382;8.480;2023-09-18T00:20:56;23.10;99.90
19007;DHT22;9636;47.382;8.480;2023-09-18T00:23:23;23.10;99.90
19007;DHT22;9636;47.382;8.480;2023-09-18T00:25:49;23.10;99.90
19007;DHT22;9636;47.382;8.480;2023-09-18T00:28:16;23.10;99.90
19007;DHT22;9636;47.382;8.480;2023-09-18T00:30:47;23.10;99.90
19007;DHT22;9636;47.382;8.480;2023-09-18T00:33:16;23.10;99.90
19007;DHT22;9636;47.382;8.480;2023-09-18T00:35:46;23.00;99.90
19007;DHT22;9636;47.382;8.480;2023-09-18T00:38:12;23.10;99.90
19007;DHT22;9636;47.382;8.480;2023-09-18T00:40:39;23.00;99.90
19007;DHT22;9636;47.382;8.480;2023-09-18T00:43:06;23.00;99.90
19007;DHT22;9636;47.382;8.480;2023-09-18T00:45:34;23.00;99.90
19007;DHT22;9636;47.382;8.480;2023-09-18T00:48:04;23.00;99.90
19007;DHT22;9636;47.382;8.480;2023-09-18T00:50:33;23.00;99.90
19007;DHT22;9636;47.382;8.480;2023-09-18T00:53:01;23.00;99.90
19007;DHT22;9636;47.382;8.480;2023-09-18T00:55:29;23.00;99.90
19007;DHT22;9636;47.382;8.480;2023-09-18T00:57:57;23.00;99.90
19007;DHT22;9636;47.382;8.480;2023-09-18T01:00:25;23.00;99.90
19007;DHT22;9636;47.382;8.480;2023-09-18T01:02:51;23.00;99.90
19007;DHT22;9636;47.382;8.480;2023-09-18T01:05:18;23.00;99.90
19007;DHT22;9636;47.382;8.480;2023-09-18T01:07:47;23.00;99.90
19007;DHT22;9636;47.382;8.480;2023-09-18T01:10:14;23.00;99.90
19007;DHT22;9636;47.382;8.480;2023-09-18T01:12:46;22.90;99.90
19007;DHT22;9636;47.382;8.480;2023-09-18T01:15:18;22.90;99.90
19007;DHT22;9636;47.382;8.480;2023-09-18T01:17:48;22.90;99.90
19007;DHT22;9636;47.382;8.480;2023-09-18T01:20:16;22.90;99.90
19007;DHT22;9636;47.382;8.480;2023-09-18T01:22:44;22.90;99.90
19007;DHT22;9636;47.382;8.480;2023-09-18T01:25:11;22.90;99.90
19007;DHT22;9636;47.382;8.480;2023-09-18T01:27:38;22.90;99.90
19007;DHT22;9636;47.382;8.480;2023-09-18T01:30:05;22.90;99.90
19007;DHT22;9636;47.382;8.480;2023-09-18T01:32:33;22.90;99.90
19007;DHT22;9636;47.382;8.480;2023-09-18T01:35:02;22.90;99.90
19007;DHT22;9636;47.382;8.480;2023-09-18T01:37:31;22.90;99.90
19007;DHT22;9636;47.382;8.480;2023-09-18T01:40:03;22.80;99.90
19007;DHT22;9636;47.382;8.480;2023-09-18T01:42:32;22.80;99.90
19007;DHT22;9636;47.382;8.480;2023-09-18T01:45:00;22.80;99.90
19007;DHT22;9636;47.382;8.480;2023-09-18T01:47:31;22.80;99.90
19007;DHT22;9636;47.382;8.480;2023-09-18T01:49:58;22.80;99.90
19007;DHT22;9636;47.382;8.480;2023-09-18T01:52:30;22.80;99.90
19007;DHT22;9636;47.382;8.480;2023-09-18T01:54:57;22.80;99.90
19007;DHT22;9636;47.382;8.480;2023-09-18T01:57:25;22.80;99.90
19007;DHT22;9636;47.382;8.480;2023-09-18T01:59:52;22.80;99.90
19007;DHT22;9636;47.382;8.480;2023-09-18T02:02:19;22.80;99.90
19007;DHT22;9636;47.382;8.480;2023-09-18T02:04:45;22.80;99.90
19007;DHT22;9636;47.382;8.480;2023-09-18T02:07:12;22.80;99.90
19007;DHT22;9636;47.382;8.480;2023-09-18T02:09:39;22.70;99.90
19007;DHT22;9636;47.382;8.480;2023-09-18T02:12:06;22.70;99.90
19007;DHT22;9636;47.382;8.480;2023-09-18T02:14:34;22.70;99.90
19007;DHT22;9636;47.382;8.480;2023-09-18T02:17:01;22.70;99.90
19007;DHT22;9636;47.382;8.480;2023-09-18T02:19:28;22.70;99.90
19007;DHT22;9636;47.382;8.480;2023-09-18T02:21:56;22.70;99.90
19007;DHT22;9636;47.382;8.480;2023-09-18T02:24:24;22.70;99.90
19007;DHT22;9636;47.382;8.480;2023-09-18T02:26:50;22.70;99.90
19007;DHT22;9636;47.382;8.480;2023-09-18T02:29:17;22.60;99.90
19007;DHT22;9636;47.382;8.480;2023-09-18T02:31:45;22.60;99.90
19007;DHT22;9636;47.382;8.480;2023-09-18T02:34:12;22.60;99.90
19007;DHT22;9636;47.382;8.480;2023-09-18T02:36:39;22.60;99.90
19007;DHT22;9636;47.382;8.480;2023-09-18T02:39:06;22.60;99.90
19007;DHT22;9636;47.382;8.480;2023-09-18T02:41:33;22.60;99.90
19007;DHT22;9636;47.382;8.480;2023-09-18T02:43:59;22.60;99.90
19007;DHT22;9636;47.382;8.480;2023-09-18T02:46:26;22.60;99.90
19007;DHT22;9636;47.382;8.480;2023-09-18T02:48:54;22.60;99.90
19007;DHT22;9636;47.382;8.480;2023-09-18T02:51:21;22.60;99.90
19007;DHT22;9636;47.382;8.480;2023-09-18T02:53:49;22.60;99.90
19007;DHT22;9636;47.382;8.480;2023-09-18T02:56:15;22.50;99.90
19007;DHT22;9636;47.382;8.480;2023-09-18T02:58:42;22.60;99.90
19007;DHT22;9636;47.382;8.480;2023-09-18T03:01:09;22.60;99.90
19007;DHT22;9636;47.382;8.480;2023-09-18T03:03:36;22.50;99.90
19007;DHT22;9636;47.382;8.480;2023-09-18T03:06:05;22.50;99.90
19007;DHT22;9636;47.382;8.480;2023-09-18T03:08:32;22.50;99.90
19007;DHT22;9636;47.382;8.480;2023-09-18T03:10:59;22.50;99.90
19007;DHT22;9636;47.382;8.480;2023-09-18T03:13:27;22.50;99.90
19007;DHT22;9636;47.382;8.480;2023-09-18T03:15:54;22.50;99.90
19007;DHT22;9636;47.382;8.480;2023-09-18T03:18:21;22.50;99.90
19007;DHT22;9636;47.382;8.480;2023-09-18T03:20:48;22.50;99.90
19007;DHT22;9636;47.382;8.480;2023-09-18T03:23:16;22.50;99.90
19007;DHT22;9636;47.382;8.480;2023-09-18T03:25:43;22.50;99.90
19007;DHT22;9636;47.382;8.480;2023-09-18T03:28:10;22.50;99.90
19007;DHT22;9636;47.382;8.480;2023-09-18T03:30:37;22.50;99.90
19007;DHT22;9636;47.382;8.480;2023-09-18T03:33:04;22.50;99.90
19007;DHT22;9636;47.382;8.480;2023-09-18T03:35:31;22.50;99.90
19007;DHT22;9636;47.382;8.480;2023-09-18T03:37:58;22.50;99.90
19007;DHT22;9636;47.382;8.480;2023-09-18T03:40:26;22.50;99.90
19007;DHT22;9636;47.382;8.480;2023-09-18T03:42:53;22.50;99.90
19007;DHT22;9636;47.382;8.480;2023-09-18T03:45:20;22.50;99.90
19007;DHT22;9636;47.382;8.480;2023-09-18T03:47:47;22.50;99.90
19007;DHT22;9636;47.382;8.480;2023-09-18T03:50:15;22.40;99.90
19007;DHT22;9636;47.382;8.480;2023-09-18T03:52:42;22.40;99.90
19007;DHT22;9636;47.382;8.480;2023-09-18T03:55:09;22.40;99.90
19007;DHT22;9636;47.382;8.480;2023-09-18T03:57:39;22.50;99.80
19007;DHT22;9636;47.382;8.480;2023-09-18T04:00:06;22.40;99.80
19007;DHT22;9636;47.382;8.480;2023-09-18T04:02:33;22.40;99.80
19007;DHT22;9636;47.382;8.480;2023-09-18T04:05:00;22.40;99.80
19007;DHT22;9636;47.382;8.480;2023-09-18T04:07:28;22.40;99.80
19007;DHT22;9636;47.382;8.480;2023-09-18T04:09:55;22.40;99.80
19007;DHT22;9636;47.382;8.480;2023-09-18T04:12:22;22.40;99.80
19007;DHT22;9636;47.382;8.480;2023-09-18T04:14:50;22.40;99.80
19007;DHT22;9636;47.382;8.480;2023-09-18T04:17:17;22.40;99.80
19007;DHT22;9636;47.382;8.480;2023-09-18T04:19:44;22.40;99.70
19007;DHT22;9636;47.382;8.480;2023-09-18T04:22:11;22.40;99.70
19007;DHT22;9636;47.382;8.480;2023-09-18T04:24:38;22.40;99.70
19007;DHT22;9636;47.382;8.480;2023-09-18T04:27:06;22.40;99.70
19007;DHT22;9636;47.382;8.480;2023-09-18T04:29:33;22.40;99.90
19007;DHT22;9636;47.382;8.480;2023-09-18T04:32:03;22.40;99.70
19007;DHT22;9636;47.382;8.480;2023-09-18T04:34:30;22.40;99.70
19007;DHT22;9636;47.382;8.480;2023-09-18T04:36:57;22.40;99.70
19007;DHT22;9636;47.382;8.480;2023-09-18T04:39:24;22.40;99.70
19007;DHT22;9636;47.382;8.480;2023-09-18T04:41:51;22.40;99.70
19007;DHT22;9636;47.382;8.480;2023-09-18T04:44:18;22.40;99.70
19007;DHT22;9636;47.382;8.480;2023-09-18T04:46:44;22.30;99.70
19007;DHT22;9636;47.382;8.480;2023-09-18T04:49:12;22.40;99.70
19007;DHT22;9636;47.382;8.480;2023-09-18T04:51:40;22.40;99.70
19007;DHT22;9636;47.382;8.480;2023-09-18T04:54:07;22.30;99.70
19007;DHT22;9636;47.382;8.480;2023-09-18T04:56:34;22.30;99.70
19007;DHT22;9636;47.382;8.480;2023-09-18T04:59:00;22.30;99.70
19007;DHT22;9636;47.382;8.480;2023-09-18T05:01:27;22.30;99.70
19007;DHT22;9636;47.382;8.480;2023-09-18T05:03:55;22.30;99.70
19007;DHT22;9636;47.382;8.480;2023-09-18T05:06:23;22.30;99.70
19007;DHT22;9636;47.382;8.480;2023-09-18T05:08:50;22.30;99.70
19007;DHT22;9636;47.382;8.480;2023-09-18T05:11:18;22.30;99.60
19007;DHT22;9636;47.382;8.480;2023-09-18T05:13:46;22.30;99.70
19007;DHT22;9636;47.382;8.480;2023-09-18T05:16:13;22.30;99.70
19007;DHT22;9636;47.382;8.480;2023-09-18T05:18:39;22.30;99.70
19007;DHT22;9636;47.382;8.480;2023-09-18T05:21:06;22.30;99.70
19007;DHT22;9636;47.382;8.480;2023-09-18T05:23:36;22.30;99.70
19007;DHT22;9636;47.382;8.480;2023-09-18T05:26:03;22.30;99.70
19007;DHT22;9636;47.382;8.480;2023-09-18T05:28:30;22.30;99.60
19007;DHT22;9636;47.382;8.480;2023-09-18T05:30:57;22.30;99.60
19007;DHT22;9636;47.382;8.480;2023-09-18T05:33:24;22.30;99.60
19007;DHT22;9636;47.382;8.480;2023-09-18T05:35:51;22.30;99.60
19007;DHT22;9636;47.382;8.480;2023-09-18T05:38:18;22.20;99.60
19007;DHT22;9636;47.382;8.480;2023-09-18T05:40:46;22.30;99.90
19007;DHT22;9636;47.382;8.480;2023-09-18T05:43:13;22.30;99.90
19007;DHT22;9636;47.382;8.480;2023-09-18T05:45:39;22.30;99.90
19007;DHT22;9636;47.382;8.480;2023-09-18T05:48:06;22.30;99.90
19007;DHT22;9636;47.382;8.480;2023-09-18T05:50:35;22.30;99.90
19007;DHT22;9636;47.382;8.480;2023-09-18T05:53:02;22.30;99.90
19007;DHT22;9636;47.382;8.480;2023-09-18T05:55:30;22.30;99.90
19007;DHT22;9636;47.382;8.480;2023-09-18T05:57:58;22.30;99.90
19007;DHT22;9636;47.382;8.480;2023-09-18T06:00:25;22.30;99.90
19007;DHT22;9636;47.382;8.480;2023-09-18T06:02:52;22.30;99.90
19007;DHT22;9636;47.382;8.480;2023-09-18T06:05:19;22.30;99.90
19007;DHT22;9636;47.382;8.480;2023-09-18T06:07:47;22.30;99.90
19007;DHT22;9636;47.382;8.480;2023-09-18T06:10:15;22.30;99.90
19007;DHT22;9636;47.382;8.480;2023-09-18T06:12:43;22.30;99.90
19007;DHT22;9636;47.382;8.480;2023-09-18T06:15:12;22.30;99.90
19007;DHT22;9636;47.382;8.480;2023-09-18T06:17:39;22.30;99.90
19007;DHT22;9636;47.382;8.480;2023-09-18T06:20:07;22.30;99.90
19007;DHT22;9636;47.382;8.480;2023-09-18T06:22:36;22.30;99.90
19007;DHT22;9636;47.382;8.480;2023-09-18T06:25:04;22.40;99.90
19007;DHT22;9636;47.382;8.480;2023-09-18T06:27:31;22.40;99.90
19007;DHT22;9636;47.382;8.480;2023-09-18T06:30:00;22.40;99.90
19007;DHT22;9636;47.382;8.480;2023-09-18T06:32:28;22.40;99.90
19007;DHT22;9636;47.382;8.480;2023-09-18T06:34:55;22.40;99.90
19007;DHT22;9636;47.382;8.480;2023-09-18T06:37:23;22.40;99.90
19007;DHT22;9636;47.382;8.480;2023-09-18T06:39:50;22.40;99.90
19007;DHT22;9636;47.382;8.480;2023-09-18T06:42:17;22.40;99.90
19007;DHT22;9636;47.382;8.480;2023-09-18T06:44:44;22.40;99.80
19007;DHT22;9636;47.382;8.480;2023-09-18T06:47:11;22.40;99.80
19007;DHT22;9636;47.382;8.480;2023-09-18T06:49:39;22.40;99.80
19007;DHT22;9636;47.382;8.480;2023-09-18T06:52:07;22.50;99.70
19007;DHT22;9636;47.382;8.480;2023-09-18T06:54:34;22.40;99.70
19007;DHT22;9636;47.382;8.480;2023-09-18T06:57:02;22.40;99.70
19007;DHT22;9636;47.382;8.480;2023-09-18T06:59:28;22.50;99.70
19007;DHT22;9636;47.382;8.480;2023-09-18T07:01:55;22.50;99.70
19007;DHT22;9636;47.382;8.480;2023-09-18T07:04:22;22.40;99.60
19007;DHT22;9636;47.382;8.480;2023-09-18T07:06:50;22.50;99.90
19007;DHT22;9636;47.382;8.480;2023-09-18T07:09:18;22.40;99.60
19007;DHT22;9636;47.382;8.480;2023-09-18T07:11:46;22.50;99.60
19007;DHT22;9636;47.382;8.480;2023-09-18T07:14:13;22.50;99.60
19007;DHT22;9636;47.382;8.480;2023-09-18T07:16:39;22.50;99.50
19007;DHT22;9636;47.382;8.480;2023-09-18T07:19:06;22.50;99.50
19007;DHT22;9636;47.382;8.480;2023-09-18T07:21:37;22.50;99.50
19007;DHT22;9636;47.382;8.480;2023-09-18T07:24:07;22.50;99.50
19007;DHT22;9636;47.382;8.480;2023-09-18T07:26:35;22.50;99.40
19007;DHT22;9636;47.382;8.480;2023-09-18T07:29:02;22.50;99.40
19007;DHT22;9636;47.382;8.480;2023-09-18T07:31:29;22.60;99.40
19007;DHT22;9636;47.382;8.480;2023-09-18T07:33:56;22.50;99.40
19007;DHT22;9636;47.382;8.480;2023-09-18T07:36:23;22.60;99.40
19007;DHT22;9636;47.382;8.480;2023-09-18T07:38:50;22.50;99.30
19007;DHT22;9636;47.382;8.480;2023-09-18T07:41:18;22.60;99.40
19007;DHT22;9636;47.382;8.480;2023-09-18T07:43:46;22.60;99.30
19007;DHT22;9636;47.382;8.480;2023-09-18T07:46:13;22.60;99.30
19007;DHT22;9636;47.382;8.480;2023-09-18T07:48:40;22.60;99.30
19007;DHT22;9636;47.382;8.480;2023-09-18T07:51:10;22.60;99.30
19007;DHT22;9636;47.382;8.480;2023-09-18T07:53:37;22.60;99.30
19007;DHT22;9636;47.382;8.480;2023-09-18T07:56:04;22.60;99.20
19007;DHT22;9636;47.382;8.480;2023-09-18T07:58:32;22.60;99.20
19007;DHT22;9636;47.382;8.480;2023-09-18T08:00:59;22.60;99.20
19007;DHT22;9636;47.382;8.480;2023-09-18T08:03:26;22.60;99.10
19007;DHT22;9636;47.382;8.480;2023-09-18T08:05:53;22.60;99.10
19007;DHT22;9636;47.382;8.480;2023-09-18T08:08:21;22.70;99.10
19007;DHT22;9636;47.382;8.480;2023-09-18T08:10:49;22.60;99.10
19007;DHT22;9636;47.382;8.480;2023-09-18T08:13:16;22.70;99.10
19007;DHT22;9636;47.382;8.480;2023-09-18T08:15:44;22.70;99.10
19007;DHT22;9636;47.382;8.480;2023-09-18T08:18:11;22.70;99.10
19007;DHT22;9636;47.382;8.480;2023-09-18T08:20:40;22.70;99.10
19007;DHT22;9636;47.382;8.480;2023-09-18T08:23:08;22.70;99.10
19007;DHT22;9636;47.382;8.480;2023-09-18T08:25:35;22.70;99.10
19007;DHT22;9636;47.382;8.480;2023-09-18T08:28:02;22.70;99.10
19007;DHT22;9636;47.382;8.480;2023-09-18T08:30:30;22.70;99.10
19007;DHT22;9636;47.382;8.480;2023-09-18T08:32:58;22.80;99.10
19007;DHT22;9636;47.382;8.480;2023-09-18T08:35:25;22.70;99.00
19007;DHT22;9636;47.382;8.480;2023-09-18T08:37:54;22.80;99.00
19007;DHT22;9636;47.382;8.480;2023-09-18T08:40:22;22.80;99.00
19007;DHT22;9636;47.382;8.480;2023-09-18T08:42:52;22.90;98.90
19007;DHT22;9636;47.382;8.480;2023-09-18T08:45:23;22.90;98.90
19007;DHT22;9636;47.382;8.480;2023-09-18T08:47:52;22.90;98.80
19007;DHT22;9636;47.382;8.480;2023-09-18T08:50:21;22.90;98.80
19007;DHT22;9636;47.382;8.480;2023-09-18T08:52:49;22.90;98.80
19007;DHT22;9636;47.382;8.480;2023-09-18T08:55:16;22.90;98.80
19007;DHT22;9636;47.382;8.480;2023-09-18T08:57:44;23.00;98.80
19007;DHT22;9636;47.382;8.480;2023-09-18T09:00:13;23.00;98.80
19007;DHT22;9636;47.382;8.480;2023-09-18T09:02:43;23.00;98.80
19007;DHT22;9636;47.382;8.480;2023-09-18T09:05:11;23.00;98.80
19007;DHT22;9636;47.382;8.480;2023-09-18T09:07:39;23.00;98.80
19007;DHT22;9636;47.382;8.480;2023-09-18T09:10:06;23.00;98.80
19007;DHT22;9636;47.382;8.480;2023-09-18T09:12:52;23.00;98.80
19007;DHT22;9636;47.382;8.480;2023-09-18T09:15:24;23.00;98.70
19007;DHT22;9636;47.382;8.480;2023-09-18T09:17:52;23.00;98.80
19007;DHT22;9636;47.382;8.480;2023-09-18T09:20:28;23.00;98.70
19007;DHT22;9636;47.382;8.480;2023-09-18T09:23:00;23.00;98.70
19007;DHT22;9636;47.382;8.480;2023-09-18T09:25:28;23.10;98.70
19007;DHT22;9636;47.382;8.480;2023-09-18T09:27:57;23.10;98.70
19007;DHT22;9636;47.382;8.480;2023-09-18T09:30:26;23.10;98.60
19007;DHT22;9636;47.382;8.480;2023-09-18T09:32:55;23.10;98.60
19007;DHT22;9636;47.382;8.480;2023-09-18T09:35:23;23.10;98.60
19007;DHT22;9636;47.382;8.480;2023-09-18T09:37:53;23.10;98.60
19007;DHT22;9636;47.382;8.480;2023-09-18T09:40:23;23.20;98.60
19007;DHT22;9636;47.382;8.480;2023-09-18T09:42:52;23.20;98.60
19007;DHT22;9636;47.382;8.480;2023-09-18T09:45:26;23.20;98.50
19007;DHT22;9636;47.382;8.480;2023-09-18T09:47:54;23.30;98.50
19007;DHT22;9636;47.382;8.480;2023-09-18T09:50:21;23.30;98.50
19007;DHT22;9636;47.382;8.480;2023-09-18T09:52:52;23.30;98.40
19007;DHT22;9636;47.382;8.480;2023-09-18T09:55:28;23.30;98.40
19007;DHT22;9636;47.382;8.480;2023-09-18T09:57:56;23.40;98.50
19007;DHT22;9636;47.382;8.480;2023-09-18T10:00:27;23.40;98.40
19007;DHT22;9636;47.382;8.480;2023-09-18T10:02:59;23.40;98.40
19007;DHT22;9636;47.382;8.480;2023-09-18T10:05:31;23.40;98.40
19007;DHT22;9636;47.382;8.480;2023-09-18T10:08:01;23.40;98.40
19007;DHT22;9636;47.382;8.480;2023-09-18T10:10:33;23.40;98.40
19007;DHT22;9636;47.382;8.480;2023-09-18T10:13:07;23.40;98.30
19007;DHT22;9636;47.382;8.480;2023-09-18T10:15:35;23.50;98.30
19007;DHT22;9636;47.382;8.480;2023-09-18T10:18:10;23.50;98.30
19007;DHT22;9636;47.382;8.480;2023-09-18T10:20:44;23.50;98.20
19007;DHT22;9636;47.382;8.480;2023-09-18T10:23:18;23.60;98.30
19007;DHT22;9636;47.382;8.480;2023-09-18T10:25:54;23.60;98.20
19007;DHT22;9636;47.382;8.480;2023-09-18T10:28:23;23.60;98.20
19007;DHT22;9636;47.382;8.480;2023-09-18T10:30:52;23.70;98.20
19007;DHT22;9636;47.382;8.480;2023-09-18T10:33:19;23.70;98.20
19007;DHT22;9636;47.382;8.480;2023-09-18T10:35:47;23.70;98.10
19007;DHT22;9636;47.382;8.480;2023-09-18T10:38:15;23.70;98.10
19007;DHT22;9636;47.382;8.480;2023-09-18T10:40:43;23.80;98.10
19007;DHT22;9636;47.382;8.480;2023-09-18T10:43:16;23.90;97.80
19007;DHT22;9636;47.382;8.480;2023-09-18T10:45:44;24.00;97.80
19007;DHT22;9636;47.382;8.480;2023-09-18T10:48:11;24.00;97.70
19007;DHT22;9636;47.382;8.480;2023-09-18T10:50:39;24.10;97.70
19007;DHT22;9636;47.382;8.480;2023-09-18T10:53:08;24.10;97.60
19007;DHT22;9636;47.382;8.480;2023-09-18T10:55:35;24.10;97.60
19007;DHT22;9636;47.382;8.480;2023-09-18T10:58:04;24.10;97.70
19007;DHT22;9636;47.382;8.480;2023-09-18T11:00:32;24.10;97.70
19007;DHT22;9636;47.382;8.480;2023-09-18T11:03:13;24.10;97.60
19007;DHT22;9636;47.382;8.480;2023-09-18T11:05:44;24.20;97.60
19007;DHT22;9636;47.382;8.480;2023-09-18T11:08:28;24.20;97.50
19007;DHT22;9636;47.382;8.480;2023-09-18T11:10:57;24.30;97.50
19007;DHT22;9636;47.382;8.480;2023-09-18T11:13:30;24.30;97.50
19007;DHT22;9636;47.382;8.480;2023-09-18T11:16:13;24.40;97.40
19007;DHT22;9636;47.382;8.480;2023-09-18T11:18:40;24.40;97.30
19007;DHT22;9636;47.382;8.480;2023-09-18T11:21:07;24.40;97.30
19007;DHT22;9636;47.382;8.480;2023-09-18T11:23:36;24.50;97.20
19007;DHT22;9636;47.382;8.480;2023-09-18T11:26:08;24.70;97.10
19007;DHT22;9636;47.382;8.480;2023-09-18T11:28:34;24.70;97.10
19007;DHT22;9636;47.382;8.480;2023-09-18T11:31:05;24.60;97.10
19007;DHT22;9636;47.382;8.480;2023-09-18T11:33:34;24.60;97.00
19007;DHT22;9636;47.382;8.480;2023-09-18T11:36:06;24.70;97.10
19007;DHT22;9636;47.382;8.480;2023-09-18T11:38:52;24.70;97.10
19007;DHT22;9636;47.382;8.480;2023-09-18T11:41:22;24.70;97.00
19007;DHT22;9636;47.382;8.480;2023-09-18T11:43:50;24.70;97.00
19007;DHT22;9636;47.382;8.480;2023-09-18T11:46:21;24.80;97.00
19007;DHT22;9636;47.382;8.480;2023-09-18T11:48:51;24.80;96.90
19007;DHT22;9636;47.382;8.480;2023-09-18T11:51:22;24.90;96.90
19007;DHT22;9636;47.382;8.480;2023-09-18T11:53:54;24.90;96.80
19007;DHT22;9636;47.382;8.480;2023-09-18T11:56:21;24.90;96.80
19007;DHT22;9636;47.382;8.480;2023-09-18T11:58:49;25.00;96.80
19007;DHT22;9636;47.382;8.480;2023-09-18T12:01:18;25.00;96.80
19007;DHT22;9636;47.382;8.480;2023-09-18T12:03:46;25.00;96.80
19007;DHT22;9636;47.382;8.480;2023-09-18T12:06:19;25.00;96.80
19007;DHT22;9636;47.382;8.480;2023-09-18T12:08:46;25.00;96.80
19007;DHT22;9636;47.382;8.480;2023-09-18T12:11:13;25.00;96.80
19007;DHT22;9636;47.382;8.480;2023-09-18T12:13:42;25.00;96.80
19007;DHT22;9636;47.382;8.480;2023-09-18T12:16:09;25.00;96.80
19007;DHT22;9636;47.382;8.480;2023-09-18T12:18:36;25.00;97.20
19007;DHT22;9636;47.382;8.480;2023-09-18T12:21:07;25.00;96.90
19007;DHT22;9636;47.382;8.480;2023-09-18T12:23:37;25.00;96.90
19007;DHT22;9636;47.382;8.480;2023-09-18T12:26:05;25.00;96.90
19007;DHT22;9636;47.382;8.480;2023-09-18T12:28:33;25.00;96.90
19007;DHT22;9636;47.382;8.480;2023-09-18T12:31:01;25.00;96.90
19007;DHT22;9636;47.382;8.480;2023-09-18T12:33:33;25.00;96.90
19007;DHT22;9636;47.382;8.480;2023-09-18T12:36:00;25.00;96.90
19007;DHT22;9636;47.382;8.480;2023-09-18T12:38:29;25.00;96.90
19007;DHT22;9636;47.382;8.480;2023-09-18T12:40:56;25.00;96.90
19007;DHT22;9636;47.382;8.480;2023-09-18T12:43:33;25.00;96.80
19007;DHT22;9636;47.382;8.480;2023-09-18T12:46:00;25.10;96.90
19007;DHT22;9636;47.382;8.480;2023-09-18T12:48:29;25.10;96.80
19007;DHT22;9636;47.382;8.480;2023-09-18T12:51:02;25.20;96.70
19007;DHT22;9636;47.382;8.480;2023-09-18T12:53:31;25.20;96.60
19007;DHT22;9636;47.382;8.480;2023-09-18T12:56:05;25.30;96.60
19007;DHT22;9636;47.382;8.480;2023-09-18T12:58:32;25.40;96.50
19007;DHT22;9636;47.382;8.480;2023-09-18T13:01:04;25.50;96.40
19007;DHT22;9636;47.382;8.480;2023-09-18T13:03:33;25.60;96.30
19007;DHT22;9636;47.382;8.480;2023-09-18T13:06:08;25.60;96.20
19007;DHT22;9636;47.382;8.480;2023-09-18T13:08:36;25.70;96.10
19007;DHT22;9636;47.382;8.480;2023-09-18T13:11:03;25.80;96.10
19007;DHT22;9636;47.382;8.480;2023-09-18T13:13:30;25.90;96.00
19007;DHT22;9636;47.382;8.480;2023-09-18T13:15:58;25.90;96.00
19007;DHT22;9636;47.382;8.480;2023-09-18T13:18:26;25.90;96.00
19007;DHT22;9636;47.382;8.480;2023-09-18T13:20:54;25.90;96.30
19007;DHT22;9636;47.382;8.480;2023-09-18T13:23:21;26.00;96.00
19007;DHT22;9636;47.382;8.480;2023-09-18T13:25:59;26.00;96.00
19007;DHT22;9636;47.382;8.480;2023-09-18T13:28:25;26.00;95.90
19007;DHT22;9636;47.382;8.480;2023-09-18T13:30:52;26.10;95.90
19007;DHT22;9636;47.382;8.480;2023-09-18T13:33:19;26.10;95.80
19007;DHT22;9636;47.382;8.480;2023-09-18T13:35:46;26.10;95.80
19007;DHT22;9636;47.382;8.480;2023-09-18T13:38:13;26.10;95.80
19007;DHT22;9636;47.382;8.480;2023-09-18T13:40:40;26.10;95.90
19007;DHT22;9636;47.382;8.480;2023-09-18T13:43:09;26.20;95.90
19007;DHT22;9636;47.382;8.480;2023-09-18T13:45:36;26.20;95.90
19007;DHT22;9636;47.382;8.480;2023-09-18T13:48:04;26.20;95.90
19007;DHT22;9636;47.382;8.480;2023-09-18T13:50:31;26.20;95.80
19007;DHT22;9636;47.382;8.480;2023-09-18T13:52:57;26.20;96.20
19007;DHT22;9636;47.382;8.480;2023-09-18T13:55:25;26.30;95.70
19007;DHT22;9636;47.382;8.480;2023-09-18T13:57:51;26.30;95.70
19007;DHT22;9636;47.382;8.480;2023-09-18T14:00:20;26.30;95.70
19007;DHT22;9636;47.382;8.480;2023-09-18T14:02:46;26.30;95.70
19007;DHT22;9636;47.382;8.480;2023-09-18T14:05:13;26.40;95.60
19007;DHT22;9636;47.382;8.480;2023-09-18T14:07:40;26.50;95.50
19007;DHT22;9636;47.382;8.480;2023-09-18T14:10:08;26.60;95.50
19007;DHT22;9636;47.382;8.480;2023-09-18T14:12:35;26.70;95.30
19007;DHT22;9636;47.382;8.480;2023-09-18T14:15:03;26.70;95.20
19007;DHT22;9636;47.382;8.480;2023-09-18T14:17:32;26.70;95.20
19007;DHT22;9636;47.382;8.480;2023-09-18T14:19:59;26.70;95.30
19007;DHT22;9636;47.382;8.480;2023-09-18T14:22:25;26.70;95.40
19007;DHT22;9636;47.382;8.480;2023-09-18T14:24:52;26.70;95.40
19007;DHT22;9636;47.382;8.480;2023-09-18T14:27:19;26.70;95.50
19007;DHT22;9636;47.382;8.480;2023-09-18T14:29:45;26.70;95.40
19007;DHT22;9636;47.382;8.480;2023-09-18T14:32:12;26.80;95.40
19007;DHT22;9636;47.382;8.480;2023-09-18T14:34:41;26.80;95.40
19007;DHT22;9636;47.382;8.480;2023-09-18T14:37:08;26.80;95.30
19007;DHT22;9636;47.382;8.480;2023-09-18T14:39:34;26.90;95.40
19007;DHT22;9636;47.382;8.480;2023-09-18T14:42:02;26.80;95.30
19007;DHT22;9636;47.382;8.480;2023-09-18T14:44:28;26.80;95.40
19007;DHT22;9636;47.382;8.480;2023-09-18T14:46:56;26.90;95.40
19007;DHT22;9636;47.382;8.480;2023-09-18T14:49:22;26.90;95.40
19007;DHT22;9636;47.382;8.480;2023-09-18T14:51:51;26.90;95.40
19007;DHT22;9636;47.382;8.480;2023-09-18T14:54:19;26.90;95.40
19007;DHT22;9636;47.382;8.480;2023-09-18T14:56:46;26.90;95.40
19007;DHT22;9636;47.382;8.480;2023-09-18T14:59:13;26.90;95.50
19007;DHT22;9636;47.382;8.480;2023-09-18T15:01:40;26.90;95.50
19007;DHT22;9636;47.382;8.480;2023-09-18T15:04:08;26.90;95.50
19007;DHT22;9636;47.382;8.480;2023-09-18T15:06:35;26.90;95.60
19007;DHT22;9636;47.382;8.480;2023-09-18T15:09:03;26.80;95.50
19007;DHT22;9636;47.382;8.480;2023-09-18T15:11:33;26.80;95.60
19007;DHT22;9636;47.382;8.480;2023-09-18T15:14:00;26.80;95.60
19007;DHT22;9636;47.382;8.480;2023-09-18T15:16:27;26.80;95.60
19007;DHT22;9636;47.382;8.480;2023-09-18T15:18:55;26.80;95.60
19007;DHT22;9636;47.382;8.480;2023-09-18T15:21:24;26.80;95.70
19007;DHT22;9636;47.382;8.480;2023-09-18T15:23:51;26.80;95.70
19007;DHT22;9636;47.382;8.480;2023-09-18T15:26:19;26.70;95.70
19007;DHT22;9636;47.382;8.480;2023-09-18T15:28:45;26.70;95.80
19007;DHT22;9636;47.382;8.480;2023-09-18T15:31:13;26.70;95.80
19007;DHT22;9636;47.382;8.480;2023-09-18T15:33:40;26.70;95.80
19007;DHT22;9636;47.382;8.480;2023-09-18T15:36:07;26.70;95.80
19007;DHT22;9636;47.382;8.480;2023-09-18T15:38:34;26.70;95.80
19007;DHT22;9636;47.382;8.480;2023-09-18T15:41:01;26.70;95.80
19007;DHT22;9636;47.382;8.480;2023-09-18T15:43:29;26.70;95.80
19007;DHT22;9636;47.382;8.480;2023-09-18T15:45:58;26.70;95.80
19007;DHT22;9636;47.382;8.480;2023-09-18T15:48:24;26.70;95.80
19007;DHT22;9636;47.382;8.480;2023-09-18T15:50:52;26.70;95.80